createdAt,value
2023-01-27T00:03:48.208Z,76.53
2023-01-27T00:08:50.308Z,75.70
2023-01-27T00:13:52.282Z,92.47
2023-01-27T00:18:54.390Z,71.38
2023-01-27T00:24:15.360Z,71.75
2023-01-27T00:29:17.447Z,86.47
2023-01-27T00:34:19.609Z,75.05
2023-01-27T00:39:21.572Z,88.80
2023-01-27T00:44:24.208Z,79.53
2023-01-27T00:49:26.252Z,72.82
2023-01-27T00:54:28.277Z,100.47
2023-01-27T00:59:30.260Z,89.82
2023-01-27T01:04:32.328Z,103.32
2023-01-27T01:09:34.411Z,110.78
2023-01-27T01:14:36.449Z,89.70
2023-01-27T01:19:38.472Z,91.13
2023-01-27T01:24:40.519Z,91.97
2023-01-27T01:29:42.525Z,77.40
2023-01-27T01:34:44.580Z,124.78
2023-01-27T01:39:46.584Z,109.25
2023-01-27T01:44:52.038Z,64.00
2023-01-27T01:49:54.056Z,58.70
2023-01-27T01:54:57.372Z,63.38
2023-01-27T02:05:30.565Z,65.82
2023-01-27T02:10:33.753Z,62.35
2023-01-27T02:15:35.914Z,67.45
2023-01-27T02:20:43.754Z,69.45
2023-01-27T02:25:55.945Z,77.60
2023-01-27T02:30:58.595Z,73.15
2023-01-27T02:36:16.785Z,71.53
2023-01-27T02:41:23.502Z,65.88
2023-01-27T02:46:25.620Z,65.78
2023-01-27T02:51:27.676Z,69.68
2023-01-27T02:56:29.670Z,63.83
2023-01-27T03:01:34.640Z,64.97
2023-01-27T03:06:36.891Z,66.45
2023-01-27T03:11:57.354Z,67.90
2023-01-27T03:17:18.063Z,62.28
2023-01-27T03:22:20.649Z,57.58
2023-01-27T03:27:22.651Z,67.43
2023-01-27T03:32:27.613Z,64.40
2023-01-27T03:37:48.985Z,64.60
2023-01-27T03:43:12.015Z,62.60
2023-01-27T03:48:14.142Z,60.90
2023-01-27T03:53:16.099Z,76.85
2023-01-27T03:58:19.967Z,66.28
2023-01-27T04:03:43.179Z,75.45
2023-01-27T04:08:45.288Z,70.53
2023-01-27T04:13:47.287Z,70.53
2023-01-27T04:18:49.864Z,65.50
2023-01-27T04:23:53.821Z,53.95
2023-01-27T04:28:55.898Z,53.78
2023-01-27T04:33:58.019Z,73.28
2023-01-27T04:39:00.106Z,74.35
2023-01-27T04:44:02.537Z,62.20
2023-01-27T04:49:05.799Z,63.17
2023-01-27T04:54:07.865Z,62.60
2023-01-27T04:59:13.177Z,69.15
2023-01-27T05:04:15.171Z,58.58
2023-01-27T05:09:17.429Z,54.05
2023-01-27T05:14:19.918Z,68.68
2023-01-27T05:19:21.884Z,56.88
2023-01-27T05:24:23.959Z,49.78
2023-01-27T05:29:26.014Z,58.15
2023-01-27T05:34:27.960Z,54.22
2023-01-27T05:39:29.921Z,42.60
2023-01-27T05:44:31.998Z,52.83
2023-01-27T05:49:33.964Z,45.17
2023-01-27T05:54:35.978Z,42.40
2023-01-27T05:59:38.003Z,44.92
2023-01-27T06:04:40.059Z,34.22
2023-01-27T06:09:42.088Z,47.08
2023-01-27T06:14:44.101Z,46.40
2023-01-27T06:19:46.126Z,50.08
2023-01-27T06:24:48.263Z,49.17
2023-01-27T06:29:50.376Z,51.83
2023-01-27T06:34:52.494Z,46.90
2023-01-27T06:39:54.632Z,43.25
2023-01-27T06:44:56.747Z,41.40
2023-01-27T06:49:58.927Z,37.63
2023-01-27T06:55:01.194Z,38.38
2023-01-27T07:00:05.150Z,37.63
2023-01-27T07:05:07.491Z,35.70
2023-01-27T07:10:10.201Z,38.25
2023-01-27T07:15:13.356Z,35.92
2023-01-27T07:20:15.789Z,34.53
2023-01-27T07:25:18.130Z,36.92
2023-01-27T07:30:20.456Z,38.63
2023-01-27T07:35:23.331Z,37.80
2023-01-27T07:40:25.467Z,40.35
2023-01-27T07:45:28.913Z,38.08
2023-01-27T07:50:31.382Z,35.63
2023-01-27T07:55:34.105Z,35.70
2023-01-27T08:00:36.968Z,40.78
2023-01-27T08:05:39.115Z,44.88
2023-01-27T08:10:41.273Z,42.83
2023-01-27T08:15:43.599Z,50.15
2023-01-27T08:20:46.195Z,49.25
2023-01-27T08:25:56.093Z,53.33
2023-01-27T08:31:07.766Z,48.05
2023-01-27T08:36:15.749Z,46.35
2023-01-27T08:41:23.591Z,47.70
2023-01-27T08:46:25.802Z,50.45
2023-01-27T08:51:28.379Z,44.00
2023-01-27T08:56:31.153Z,48.17
2023-01-27T09:01:33.541Z,45.45
2023-01-27T09:06:35.748Z,49.00
2023-01-27T09:11:41.687Z,51.40
2023-01-27T09:16:43.813Z,45.10
2023-01-27T09:21:45.930Z,55.83
2023-01-27T09:26:48.132Z,51.28
2023-01-27T09:31:50.368Z,49.90
2023-01-27T09:36:59.086Z,49.38
2023-01-27T09:42:19.578Z,50.95
2023-01-27T09:47:33.500Z,50.28
2023-01-27T09:53:00.843Z,45.95
2023-01-27T09:58:27.816Z,47.95
2023-01-27T10:03:53.039Z,45.33
2023-01-27T10:09:20.741Z,47.15
2023-01-27T10:15:06.162Z,43.70
2023-01-27T10:20:21.282Z,40.70
2023-01-27T10:25:53.625Z,38.42
2023-01-27T10:31:12.611Z,40.72
2023-01-27T10:36:37.681Z,40.72
2023-01-27T10:42:00.548Z,40.33
2023-01-27T10:47:19.346Z,36.72
2023-01-27T10:52:40.539Z,41.10
2023-01-27T10:58:00.674Z,38.60
2023-01-27T11:03:21.961Z,41.53
2023-01-27T11:08:28.164Z,41.60
2023-01-27T11:13:32.506Z,39.03
2023-01-27T11:18:38.580Z,36.25
2023-01-27T11:23:46.170Z,41.03
2023-01-27T11:29:16.038Z,30.73
2023-01-27T11:34:36.053Z,34.35
2023-01-27T11:39:38.168Z,28.48
2023-01-27T11:44:41.920Z,27.63
2023-01-27T11:49:48.621Z,32.45
2023-01-27T11:55:04.054Z,34.45
2023-01-27T12:00:12.598Z,33.75
2023-01-27T12:05:25.420Z,35.38
2023-01-27T12:10:44.946Z,35.72
2023-01-27T12:16:01.072Z,33.17
2023-01-27T12:21:09.005Z,35.13
2023-01-27T12:26:13.168Z,37.10
2023-01-27T12:31:30.252Z,39.28
2023-01-27T12:36:41.280Z,40.30
2023-01-27T12:41:44.115Z,35.55
2023-01-27T12:47:03.788Z,38.00
2023-01-27T12:52:09.886Z,39.80
2023-01-27T12:57:22.932Z,30.60
2023-01-27T13:02:31.254Z,28.55
2023-01-27T13:08:00.310Z,33.42
2023-01-27T13:13:03.229Z,28.55
2023-01-27T13:18:22.138Z,23.95
2023-01-27T13:23:31.946Z,22.95
2023-01-27T13:28:53.095Z,25.73
2023-01-27T13:34:02.026Z,26.55
2023-01-27T13:39:12.562Z,23.15
2023-01-27T13:44:30.559Z,20.60
2023-01-27T13:49:41.645Z,26.27
2023-01-27T13:54:43.759Z,22.25
2023-01-27T14:00:13.019Z,23.30
2023-01-27T14:05:41.424Z,23.83
2023-01-27T14:10:54.379Z,23.63
2023-01-27T14:16:32.339Z,21.80
2023-01-27T14:21:53.230Z,24.17
2023-01-27T14:27:01.226Z,21.73
2023-01-27T14:32:29.825Z,23.58
2023-01-27T14:37:53.068Z,22.60
2023-01-27T14:43:37.444Z,23.50
2023-01-27T14:48:44.547Z,25.85
2023-01-27T14:59:11.500Z,21.80
2023-01-27T15:04:18.549Z,22.98
2023-01-27T15:09:55.115Z,22.48
2023-01-27T15:15:24.165Z,20.38
2023-01-27T15:20:46.277Z,19.55
2023-01-27T15:26:09.372Z,20.55
2023-01-27T15:31:19.996Z,20.75
2023-01-27T15:36:28.863Z,19.83
2023-01-27T15:41:31.685Z,17.90
2023-01-27T15:46:38.482Z,22.50
2023-01-27T15:51:41.656Z,19.83
2023-01-27T15:56:54.029Z,23.42
2023-01-27T16:08:14.110Z,21.58
2023-01-27T16:19:44.843Z,20.85
2023-01-27T16:31:10.602Z,19.00
2023-01-27T16:36:29.361Z,21.42
2023-01-27T16:41:38.327Z,18.23
2023-01-27T16:46:48.155Z,19.88
2023-01-27T16:51:59.729Z,18.88
2023-01-27T16:57:08.895Z,16.23
2023-01-27T17:02:45.019Z,22.15
2023-01-27T17:08:03.800Z,20.02
2023-01-27T17:13:07.070Z,19.50
2023-01-27T17:18:13.233Z,15.02
2023-01-27T17:23:38.233Z,18.08
2023-01-27T17:28:44.361Z,20.88
2023-01-27T17:34:07.654Z,19.40
2023-01-27T17:39:26.050Z,19.73
2023-01-27T17:44:46.933Z,13.68
2023-01-27T17:50:39.916Z,18.25
2023-01-27T17:55:57.995Z,14.73
2023-01-27T18:06:52.900Z,14.68
2023-01-27T18:12:51.009Z,15.60
2023-01-27T18:18:04.592Z,14.30
2023-01-27T18:23:22.212Z,15.27
2023-01-27T18:28:42.902Z,15.23
2023-01-27T18:33:47.283Z,12.50
2023-01-27T18:38:51.381Z,12.15
2023-01-27T18:43:56.645Z,12.90
2023-01-27T18:49:01.923Z,11.30
2023-01-27T19:12:43.648Z,10.15
2023-01-27T19:17:50.088Z,11.48
2023-01-27T19:29:21.539Z,10.43
2023-01-27T19:34:25.868Z,11.63
2023-01-27T19:39:35.842Z,9.98
2023-01-27T19:44:47.027Z,9.95
2023-01-27T19:50:05.034Z,8.48
2023-01-27T19:55:25.294Z,8.57
2023-01-27T20:00:42.837Z,10.23
2023-01-27T20:06:51.099Z,9.98
2023-01-27T20:12:18.196Z,7.30
2023-01-27T20:17:29.589Z,7.55
2023-01-27T20:22:52.143Z,4.93
2023-01-27T20:28:05.563Z,5.82
2023-01-27T20:33:26.990Z,7.57
2023-01-27T20:39:14.029Z,7.45
2023-01-27T20:50:27.098Z,8.48
2023-01-27T20:55:31.985Z,6.78
2023-01-27T21:00:35.557Z,7.20
2023-01-27T21:05:40.979Z,9.02
2023-01-27T21:10:48.765Z,8.15
2023-01-27T21:16:07.745Z,6.50
2023-01-27T21:33:29.583Z,5.80
2023-01-27T21:45:13.291Z,8.40
2023-01-27T21:50:37.810Z,8.75
2023-01-27T21:55:58.775Z,8.50
2023-01-27T22:01:25.999Z,9.80
2023-01-27T22:06:36.669Z,9.52
2023-01-27T22:11:52.535Z,7.47
2023-01-27T22:17:05.435Z,10.13
2023-01-27T22:22:14.888Z,9.75
2023-01-27T22:27:18.289Z,8.68
2023-01-27T22:32:21.955Z,7.75
2023-01-27T22:37:23.999Z,6.70
2023-01-27T22:42:26.063Z,8.45
2023-01-27T22:47:28.247Z,8.60
2023-01-27T22:52:30.403Z,10.05
2023-01-27T22:57:33.462Z,7.65
2023-01-27T23:02:36.396Z,7.57
2023-01-27T23:07:38.511Z,7.75
2023-01-27T23:12:40.683Z,7.80
2023-01-27T23:17:45.742Z,7.30
2023-01-27T23:22:49.558Z,8.43
2023-01-27T23:27:52.624Z,8.70
2023-01-27T23:32:58.069Z,8.38
2023-01-27T23:38:00.194Z,8.27
2023-01-27T23:43:02.600Z,6.75
2023-01-27T23:48:04.755Z,10.15
2023-01-27T23:53:06.857Z,8.60
2023-01-27T23:58:09.584Z,9.82
